createdAt,value
2017-05-29T00:00:12.379Z,0
2017-05-29T00:01:24.959Z,0
2017-05-29T00:02:37.178Z,0
2017-05-29T00:03:49.742Z,0
2017-05-29T00:05:02.311Z,0
2017-05-29T00:06:14.558Z,0
2017-05-29T00:07:26.819Z,0
2017-05-29T00:08:39.079Z,0
2017-05-29T00:09:51.606Z,0
2017-05-29T00:11:03.854Z,0
2017-05-29T00:12:16.095Z,0
2017-05-29T00:13:28.342Z,0
2017-05-29T00:14:40.883Z,0
2017-05-29T00:15:53.412Z,0
2017-05-29T00:17:05.354Z,0
2017-05-29T00:18:17.293Z,0
2017-05-29T00:19:29.841Z,0
2017-05-29T00:20:42.070Z,0
2017-05-29T00:21:54.616Z,0
2017-05-29T00:23:07.161Z,0
2017-05-29T00:24:19.080Z,0
2017-05-29T00:25:31.646Z,0
2017-05-29T00:26:44.189Z,0
2017-05-29T00:27:56.746Z,0
2017-05-29T00:29:08.709Z,0
2017-05-29T00:30:20.916Z,0
2017-05-29T00:31:33.475Z,0
2017-05-29T00:32:46.026Z,0
2017-05-29T00:33:58.565Z,0
2017-05-29T00:35:10.812Z,0
2017-05-29T00:36:23.058Z,0
2017-05-29T00:37:35.610Z,0
2017-05-29T00:38:47.857Z,0
2017-05-29T00:40:00.397Z,0
2017-05-29T00:41:12.947Z,0
2017-05-29T00:42:24.886Z,0
2017-05-29T00:43:37.139Z,0
2017-05-29T00:44:49.686Z,0
2017-05-29T00:46:01.634Z,0
2017-05-29T00:47:13.605Z,0
2017-05-29T00:48:25.847Z,0
2017-05-29T00:49:38.114Z,0
2017-05-29T00:50:50.640Z,0
2017-05-29T00:52:03.435Z,0
2017-05-29T00:53:14.760Z,0
2017-05-29T00:54:27.303Z,0
2017-05-29T00:55:39.845Z,0
2017-05-29T00:56:52.419Z,0
2017-05-29T00:58:04.066Z,0
2017-05-29T00:59:16.294Z,0
2017-05-29T01:00:28.855Z,0
2017-05-29T01:01:41.096Z,0
2017-05-29T01:02:53.628Z,0
2017-05-29T01:04:06.170Z,0
2017-05-29T01:05:18.695Z,0
2017-05-29T01:06:30.919Z,0
2017-05-29T01:07:43.158Z,0
2017-05-29T01:08:55.380Z,0
2017-05-29T01:10:07.941Z,0
2017-05-29T01:11:20.474Z,0
2017-05-29T01:12:32.712Z,0
2017-05-29T01:13:44.964Z,0
2017-05-29T01:14:57.501Z,0
2017-05-29T01:16:10.046Z,0
2017-05-29T01:17:22.280Z,0
2017-05-29T01:18:34.838Z,0
2017-05-29T01:19:47.047Z,0
2017-05-29T01:20:59.294Z,0
2017-05-29T01:22:11.262Z,0
2017-05-29T01:23:23.183Z,0
2017-05-29T01:24:35.954Z,0
2017-05-29T01:25:48.525Z,0
2017-05-29T01:27:01.062Z,0
2017-05-29T01:28:12.696Z,0
2017-05-29T01:29:25.263Z,0
2017-05-29T01:30:36.897Z,0
2017-05-29T01:31:49.429Z,0
2017-05-29T01:33:01.946Z,0
2017-05-29T01:34:13.885Z,0
2017-05-29T01:35:26.118Z,0
2017-05-29T01:36:38.376Z,0
2017-05-29T01:37:50.932Z,0
2017-05-29T01:39:03.176Z,0
2017-05-29T01:40:15.414Z,0
2017-05-29T01:41:27.343Z,0
2017-05-29T01:42:39.569Z,0
2017-05-29T01:43:52.139Z,0
2017-05-29T01:45:04.084Z,0
2017-05-29T01:46:16.631Z,0
2017-05-29T01:47:28.577Z,0
2017-05-29T01:48:41.128Z,0
2017-05-29T01:49:53.686Z,0
2017-05-29T01:51:06.211Z,0
2017-05-29T01:52:18.135Z,0
2017-05-29T01:53:30.408Z,0
2017-05-29T01:54:42.902Z,0
2017-05-29T01:55:55.131Z,0
2017-05-29T01:57:07.639Z,0
2017-05-29T01:58:19.881Z,0
2017-05-29T01:59:32.110Z,0
2017-05-29T02:00:44.619Z,0
2017-05-29T02:01:57.149Z,0
2017-05-29T02:03:09.088Z,0
2017-05-29T02:04:21.616Z,0
2017-05-29T02:05:34.157Z,0
2017-05-29T02:06:46.703Z,0
2017-05-29T02:07:59.524Z,0
2017-05-29T02:09:11.745Z,0
2017-05-29T02:10:24.291Z,0
2017-05-29T02:11:36.820Z,0
2017-05-29T02:12:48.741Z,0
2017-05-29T02:14:01.259Z,0
2017-05-29T02:15:13.484Z,0
2017-05-29T02:16:26.068Z,0
2017-05-29T02:17:38.616Z,0
2017-05-29T02:18:50.900Z,0
2017-05-29T02:20:03.164Z,0
2017-05-29T02:21:15.686Z,0
2017-05-29T02:22:27.922Z,0
2017-05-29T02:23:40.450Z,0
2017-05-29T02:24:52.399Z,0
2017-05-29T02:26:04.642Z,0
2017-05-29T02:27:16.880Z,0
2017-05-29T02:28:29.414Z,0
2017-05-29T02:29:42.255Z,0
2017-05-29T02:30:54.804Z,0
2017-05-29T02:32:06.998Z,0
2017-05-29T02:33:19.521Z,0
2017-05-29T02:34:31.763Z,0
2017-05-29T02:35:44.027Z,0
2017-05-29T02:36:56.561Z,0
2017-05-29T02:38:08.805Z,0
2017-05-29T02:39:21.047Z,0
2017-05-29T02:40:33.589Z,0
2017-05-29T02:41:46.161Z,0
2017-05-29T02:42:58.685Z,0
2017-05-29T02:44:10.910Z,5
2017-05-29T02:45:23.447Z,5
2017-05-29T02:46:35.977Z,5
2017-05-29T02:47:47.900Z,5
2017-05-29T02:49:00.132Z,5
2017-05-29T02:50:12.052Z,5
2017-05-29T02:51:24.831Z,5
2017-05-29T02:52:37.352Z,10
2017-05-29T02:53:49.902Z,10
2017-05-29T02:55:02.137Z,10
2017-05-29T02:56:14.685Z,10
2017-05-29T02:57:26.917Z,10
2017-05-29T02:58:39.149Z,15
2017-05-29T02:59:51.695Z,15
2017-05-29T03:01:03.949Z,15
2017-05-29T03:02:16.195Z,20
2017-05-29T03:03:28.724Z,20
2017-05-29T03:04:41.261Z,20
2017-05-29T03:05:53.803Z,20
2017-05-29T03:07:06.332Z,25
2017-05-29T03:08:18.603Z,25
2017-05-29T03:09:30.847Z,25
2017-05-29T03:10:43.087Z,30
2017-05-29T03:11:55.685Z,30
2017-05-29T03:13:07.907Z,30
2017-05-29T03:14:19.836Z,35
2017-05-29T03:15:32.075Z,40
2017-05-29T03:16:44.598Z,40
2017-05-29T03:17:57.146Z,40
2017-05-29T03:19:09.691Z,45
2017-05-29T03:20:22.225Z,45
2017-05-29T03:21:34.758Z,55
2017-05-29T03:22:47.018Z,60
2017-05-29T03:23:59.517Z,55
2017-05-29T03:25:12.071Z,55
2017-05-29T03:26:24.320Z,50
2017-05-29T03:27:36.860Z,55
2017-05-29T03:28:49.383Z,55
2017-05-29T03:30:01.928Z,60
2017-05-29T03:31:14.155Z,60
2017-05-29T03:32:26.076Z,65
2017-05-29T03:33:38.619Z,65
2017-05-29T03:34:51.180Z,70
2017-05-29T03:36:03.151Z,75
2017-05-29T03:37:15.080Z,80
2017-05-29T03:38:27.628Z,80
2017-05-29T03:39:40.185Z,85
2017-05-29T03:40:52.731Z,85
2017-05-29T03:42:04.955Z,85
2017-05-29T03:43:17.536Z,90
2017-05-29T03:44:29.756Z,95
2017-05-29T03:45:42.326Z,95
2017-05-29T03:46:54.924Z,90
2017-05-29T03:48:06.871Z,90
2017-05-29T03:49:19.089Z,95
2017-05-29T03:50:31.323Z,100
2017-05-29T03:51:43.880Z,100
2017-05-29T03:52:56.431Z,100
2017-05-29T03:54:08.986Z,105
2017-05-29T03:55:21.547Z,105
2017-05-29T03:56:33.810Z,105
2017-05-29T03:57:46.057Z,115
2017-05-29T03:58:58.610Z,125
2017-05-29T04:00:10.553Z,125
2017-05-29T04:01:22.812Z,120
2017-05-29T04:02:35.370Z,115
2017-05-29T04:03:47.911Z,120
2017-05-29T04:05:00.137Z,125
2017-05-29T04:06:12.086Z,125
2017-05-29T04:07:24.324Z,125
2017-05-29T04:08:36.549Z,130
2017-05-29T04:09:49.094Z,130
2017-05-29T04:11:01.353Z,130
2017-05-29T04:12:13.884Z,135
2017-05-29T04:13:26.097Z,140
2017-05-29T04:14:38.353Z,140
2017-05-29T04:15:50.621Z,140
2017-05-29T04:17:02.570Z,140
2017-05-29T04:18:14.866Z,145
2017-05-29T04:19:27.449Z,150
2017-05-29T04:20:39.396Z,155
2017-05-29T04:21:51.946Z,160
2017-05-29T04:23:04.476Z,165
2017-05-29T04:24:16.693Z,170
2017-05-29T04:25:29.218Z,180
2017-05-29T04:26:41.784Z,185
2017-05-29T04:27:54.329Z,195
2017-05-29T04:29:07.170Z,205
2017-05-29T04:30:18.501Z,210
2017-05-29T04:31:30.722Z,210
2017-05-29T04:32:42.967Z,210
2017-05-29T04:33:55.266Z,215
2017-05-29T04:35:07.522Z,220
2017-05-29T04:36:19.755Z,225
2017-05-29T04:37:32.297Z,225
2017-05-29T04:38:44.835Z,230
2017-05-29T04:39:57.384Z,235
2017-05-29T04:41:09.613Z,240
2017-05-29T04:42:21.572Z,240
2017-05-29T04:43:33.506Z,245
2017-05-29T04:44:45.744Z,250
2017-05-29T04:45:57.699Z,250
2017-05-29T04:47:10.245Z,255
2017-05-29T04:48:22.488Z,260
2017-05-29T04:49:35.010Z,265
2017-05-29T04:50:47.277Z,270
2017-05-29T04:51:59.806Z,270
2017-05-29T04:53:12.062Z,275
2017-05-29T04:54:24.315Z,275
2017-05-29T04:55:36.537Z,270
2017-05-29T04:56:49.074Z,270
2017-05-29T04:58:01.305Z,270
2017-05-29T04:59:13.801Z,270
2017-05-29T05:00:26.049Z,270
2017-05-29T05:01:38.540Z,270
2017-05-29T05:02:50.491Z,265
2017-05-29T05:04:02.737Z,255
2017-05-29T05:05:14.982Z,260
2017-05-29T05:06:27.245Z,260
2017-05-29T05:07:39.802Z,275
2017-05-29T05:08:51.717Z,280
2017-05-29T05:10:03.654Z,285
2017-05-29T05:11:15.604Z,290
2017-05-29T05:12:28.157Z,305
2017-05-29T05:13:40.728Z,305
2017-05-29T05:14:52.969Z,305
2017-05-29T05:16:05.219Z,315
2017-05-29T05:17:17.463Z,320
2017-05-29T05:18:29.725Z,320
2017-05-29T05:19:41.975Z,305
2017-05-29T05:20:54.523Z,290
2017-05-29T05:22:07.075Z,305
2017-05-29T05:23:19.914Z,280
2017-05-29T05:24:31.880Z,335
2017-05-29T05:25:44.110Z,320
2017-05-29T05:26:56.632Z,310
2017-05-29T05:28:08.893Z,330
2017-05-29T05:29:21.425Z,345
2017-05-29T05:30:33.673Z,320
2017-05-29T05:31:45.934Z,300
2017-05-29T05:32:57.576Z,295
2017-05-29T05:34:09.836Z,295
2017-05-29T05:35:21.776Z,285
2017-05-29T05:36:33.700Z,260
2017-05-29T05:37:45.672Z,235
2017-05-29T05:38:57.919Z,225
2017-05-29T05:40:10.482Z,250
2017-05-29T05:41:22.710Z,285
2017-05-29T05:42:34.957Z,295
2017-05-29T05:43:47.508Z,295
2017-05-29T05:45:00.349Z,345
2017-05-29T05:46:12.610Z,340
2017-05-29T05:47:25.153Z,310
2017-05-29T05:48:37.698Z,320
2017-05-29T05:49:50.229Z,340
2017-05-29T05:51:02.756Z,345
2017-05-29T05:52:15.019Z,340
2017-05-29T05:53:27.560Z,350
2017-05-29T05:54:39.819Z,385
2017-05-29T05:55:52.347Z,400
2017-05-29T05:57:04.603Z,420
2017-05-29T05:58:16.526Z,435
2017-05-29T05:59:28.770Z,430
2017-05-29T06:00:41.015Z,440
2017-05-29T06:01:53.563Z,480
2017-05-29T06:03:05.784Z,515
2017-05-29T06:04:17.432Z,515
2017-05-29T06:05:30.002Z,505
2017-05-29T06:06:42.248Z,490
2017-05-29T06:07:54.791Z,485
2017-05-29T06:09:07.017Z,475
2017-05-29T06:10:19.257Z,440
2017-05-29T06:11:31.503Z,470
2017-05-29T06:12:44.041Z,445
2017-05-29T06:13:56.578Z,355
2017-05-29T06:15:09.109Z,365
2017-05-29T06:16:21.413Z,395
2017-05-29T06:17:34.188Z,455
2017-05-29T06:18:46.449Z,600
2017-05-29T06:19:58.680Z,710
2017-05-29T06:21:11.237Z,625
2017-05-29T06:22:23.468Z,700
2017-05-29T06:23:35.719Z,730
2017-05-29T06:24:47.962Z,635
2017-05-29T06:26:00.529Z,580
2017-05-29T06:27:12.767Z,555
2017-05-29T06:28:25.014Z,665
2017-05-29T06:29:36.963Z,575
2017-05-29T06:30:49.213Z,605
2017-05-29T06:32:01.780Z,695
2017-05-29T06:33:14.305Z,795
2017-05-29T06:34:26.547Z,1070
2017-05-29T06:35:38.807Z,1145
2017-05-29T06:36:51.369Z,565
2017-05-29T06:38:03.639Z,700
2017-05-29T06:39:16.476Z,855
2017-05-29T06:40:28.455Z,1025
2017-05-29T06:41:40.441Z,950
2017-05-29T06:42:53.018Z,915
2017-05-29T06:44:05.275Z,1055
2017-05-29T06:45:17.283Z,975
2017-05-29T06:46:29.526Z,1200
2017-05-29T06:47:41.182Z,1235
2017-05-29T06:48:53.732Z,1260
2017-05-29T06:50:06.323Z,1255
2017-05-29T06:51:18.294Z,1270
2017-05-29T06:52:30.546Z,1305
2017-05-29T06:53:42.778Z,1300
2017-05-29T06:54:55.010Z,1315
2017-05-29T06:56:07.596Z,1350
2017-05-29T06:57:20.155Z,1355
2017-05-29T06:58:32.715Z,1330
2017-05-29T06:59:45.240Z,1350
2017-05-29T07:00:57.743Z,1335
2017-05-29T07:02:09.982Z,1330
2017-05-29T07:03:22.545Z,1360
2017-05-29T07:04:35.126Z,1395
2017-05-29T07:05:47.372Z,1345
2017-05-29T07:06:59.917Z,1375
2017-05-29T07:08:12.167Z,1455
2017-05-29T07:09:24.133Z,1485
2017-05-29T07:10:36.400Z,1435
2017-05-29T07:11:48.980Z,1510
2017-05-29T07:13:01.558Z,1500
2017-05-29T07:14:14.094Z,1515
2017-05-29T07:15:26.640Z,1545
2017-05-29T07:16:39.304Z,1565
2017-05-29T07:17:51.853Z,1575
2017-05-29T07:19:04.429Z,1580
2017-05-29T07:20:16.395Z,1595
2017-05-29T07:21:28.623Z,1600
2017-05-29T07:22:40.264Z,1585
2017-05-29T07:23:52.825Z,1575
2017-05-29T07:25:05.061Z,1645
2017-05-29T07:26:16.999Z,1605
2017-05-29T07:27:28.023Z,1690
2017-05-29T07:28:40.279Z,1725
2017-05-29T07:29:52.561Z,1700
2017-05-29T07:31:05.137Z,1770
2017-05-29T07:32:17.124Z,1745
2017-05-29T07:33:29.394Z,1685
2017-05-29T07:34:41.368Z,1780
2017-05-29T07:35:53.918Z,1765
2017-05-29T07:37:06.168Z,1805
2017-05-29T07:38:18.131Z,1855
2017-05-29T07:39:30.084Z,1870
2017-05-29T07:40:42.655Z,1885
2017-05-29T07:41:54.901Z,1840
2017-05-29T07:43:07.446Z,1795
2017-05-29T07:44:19.718Z,1850
2017-05-29T07:45:32.265Z,1965
2017-05-29T07:46:44.226Z,1940
2017-05-29T07:47:56.784Z,1870
2017-05-29T07:49:09.341Z,1915
2017-05-29T07:50:21.600Z,2010
2017-05-29T07:51:34.143Z,1945
2017-05-29T07:52:46.427Z,2010
2017-05-29T07:53:58.999Z,2090
2017-05-29T07:55:11.556Z,2100
2017-05-29T07:56:23.491Z,2070
2017-05-29T07:57:35.775Z,2010
2017-05-29T07:58:48.359Z,2150
2017-05-29T08:00:00.910Z,2180
2017-05-29T08:01:12.854Z,2110
2017-05-29T08:02:25.105Z,2180
2017-05-29T08:03:37.070Z,2200
2017-05-29T08:04:49.324Z,2080
2017-05-29T08:06:01.588Z,2140
2017-05-29T08:07:14.154Z,2285
2017-05-29T08:08:26.436Z,2235
2017-05-29T08:09:38.995Z,2215
2017-05-29T08:10:51.003Z,2210
2017-05-29T08:12:03.570Z,2135
2017-05-29T08:13:15.521Z,2215
2017-05-29T08:14:27.480Z,2315
2017-05-29T08:15:39.792Z,2395
2017-05-29T08:16:51.734Z,2385
2017-05-29T08:18:04.332Z,2440
2017-05-29T08:19:16.625Z,2355
2017-05-29T08:20:28.575Z,2330
2017-05-29T08:21:41.158Z,2305
2017-05-29T08:22:53.733Z,2490
2017-05-29T08:24:05.672Z,2445
2017-05-29T08:25:17.941Z,2420
2017-05-29T08:26:30.213Z,2505
2017-05-29T08:27:42.445Z,2145
2017-05-29T08:28:54.733Z,2425
2017-05-29T08:30:06.712Z,2510
2017-05-29T08:31:19.299Z,2410
2017-05-29T08:32:31.527Z,2185
2017-05-29T08:33:43.802Z,2240
2017-05-29T08:34:55.774Z,2470
2017-05-29T08:36:08.317Z,2815
2017-05-29T08:37:19.964Z,2960
2017-05-29T08:38:32.231Z,2630
2017-05-29T08:39:44.504Z,2735
2017-05-29T08:40:57.075Z,2700
2017-05-29T08:42:09.339Z,2935
2017-05-29T08:43:20.990Z,2765
2017-05-29T08:44:32.952Z,2705
2017-05-29T08:45:45.556Z,2745
2017-05-29T08:46:57.503Z,2705
2017-05-29T08:48:10.044Z,2795
2017-05-29T08:49:22.616Z,2770
2017-05-29T08:50:35.166Z,2850
2017-05-29T08:51:46.815Z,2715
2017-05-29T08:52:59.074Z,2950
2017-05-29T08:54:11.648Z,3085
2017-05-29T08:55:23.003Z,2985
2017-05-29T08:56:35.289Z,2960
2017-05-29T08:57:47.557Z,2935
2017-05-29T08:58:59.840Z,2965
2017-05-29T09:00:12.389Z,3150
2017-05-29T09:01:24.053Z,2990
2017-05-29T09:02:36.620Z,2955
2017-05-29T09:03:49.191Z,2970
2017-05-29T09:05:01.745Z,2805
2017-05-29T09:06:13.708Z,2755
2017-05-29T09:07:25.687Z,2720
2017-05-29T09:08:37.970Z,3030
2017-05-29T09:09:50.236Z,3090
2017-05-29T09:11:02.175Z,2445
2017-05-29T09:12:14.741Z,3240
2017-05-29T09:13:26.987Z,3200
2017-05-29T09:14:39.250Z,2995
2017-05-29T09:15:51.535Z,2680
2017-05-29T09:17:04.092Z,1795
2017-05-29T09:18:16.368Z,3355
2017-05-29T09:19:28.024Z,3545
2017-05-29T09:20:40.619Z,3460
2017-05-29T09:21:52.901Z,3075
2017-05-29T09:23:05.172Z,2755
2017-05-29T09:24:16.827Z,3325
2017-05-29T09:25:29.375Z,3600
2017-05-29T09:26:41.895Z,3115
2017-05-29T09:27:54.155Z,1905
2017-05-29T09:29:06.705Z,1920
2017-05-29T09:30:18.673Z,1715
2017-05-29T09:31:30.927Z,2110
2017-05-29T09:32:43.501Z,2215
2017-05-29T09:33:55.467Z,2515
2017-05-29T09:35:07.435Z,3000
2017-05-29T09:36:19.989Z,3280
2017-05-29T09:37:32.606Z,3385
2017-05-29T09:38:45.169Z,3445
2017-05-29T09:39:57.431Z,3550
2017-05-29T09:41:09.699Z,3695
2017-05-29T09:42:21.971Z,3800
2017-05-29T09:43:33.636Z,3310
2017-05-29T09:44:46.198Z,3610
2017-05-29T09:45:58.778Z,3655
2017-05-29T09:47:11.066Z,3720
2017-05-29T09:48:23.621Z,3555
2017-05-29T09:49:35.896Z,3545
2017-05-29T09:50:48.466Z,3495
2017-05-29T09:52:01.030Z,3590
2017-05-29T09:53:12.974Z,3915
2017-05-29T09:54:25.523Z,4090
2017-05-29T09:55:37.778Z,3590
2017-05-29T09:56:50.072Z,3670
2017-05-29T09:58:02.362Z,4060
2017-05-29T09:59:14.623Z,4010
2017-05-29T10:00:26.604Z,3825
2017-05-29T10:01:38.828Z,3630
2017-05-29T10:02:51.399Z,3560
2017-05-29T10:04:03.369Z,3615
2017-05-29T10:05:15.629Z,3435
2017-05-29T10:06:27.883Z,3555
2017-05-29T10:07:40.450Z,3745
2017-05-29T10:08:52.717Z,3725
2017-05-29T10:10:04.691Z,3560
2017-05-29T10:11:17.249Z,3765
2017-05-29T10:12:29.805Z,3835
2017-05-29T10:13:42.061Z,3600
2017-05-29T10:14:54.607Z,3925
2017-05-29T10:16:06.903Z,4260
2017-05-29T10:17:19.192Z,3920
2017-05-29T10:18:31.767Z,4010
2017-05-29T10:19:44.042Z,3885
2017-05-29T10:20:56.612Z,4085
2017-05-29T10:22:08.606Z,3965
2017-05-29T10:23:19.968Z,3880
2017-05-29T10:24:32.225Z,4020
2017-05-29T10:25:44.169Z,4085
2017-05-29T10:26:56.392Z,4200
2017-05-29T10:28:08.663Z,4305
2017-05-29T10:29:20.348Z,4305
2017-05-29T10:30:32.631Z,4320
2017-05-29T10:31:44.277Z,3980
2017-05-29T10:32:56.846Z,4165
2017-05-29T10:34:09.407Z,4100
2017-05-29T10:35:21.368Z,4345
2017-05-29T10:36:33.609Z,4495
2017-05-29T10:37:45.878Z,4310
2017-05-29T10:38:58.123Z,3465
2017-05-29T10:40:10.394Z,4135
2017-05-29T10:41:22.057Z,4435
2017-05-29T10:42:34.628Z,4515
2017-05-29T10:43:47.177Z,4380
2017-05-29T10:44:59.131Z,4180
2017-05-29T10:46:11.101Z,4020
2017-05-29T10:47:22.448Z,4045
2017-05-29T10:48:35.041Z,4110
2017-05-29T10:49:47.304Z,4260
2017-05-29T10:50:59.883Z,4215
2017-05-29T10:52:11.828Z,3975
2017-05-29T10:53:23.792Z,3625
2017-05-29T10:54:36.365Z,4025
2017-05-29T10:55:48.641Z,3790
2017-05-29T10:57:01.189Z,3720
2017-05-29T10:58:13.149Z,3685
2017-05-29T10:59:25.133Z,3905
2017-05-29T11:00:37.383Z,3950
2017-05-29T11:01:49.647Z,3910
2017-05-29T11:03:02.172Z,4165
2017-05-29T11:04:14.440Z,2725
2017-05-29T11:05:26.361Z,2805
2017-05-29T11:06:38.905Z,3360
2017-05-29T11:07:50.908Z,3650
2017-05-29T11:09:03.471Z,3725
2017-05-29T11:10:15.434Z,3785
2017-05-29T11:11:28.006Z,3765
2017-05-29T11:12:40.284Z,3495
2017-05-29T11:13:52.561Z,3360
2017-05-29T11:15:05.131Z,3015
2017-05-29T11:16:17.402Z,2865
2017-05-29T11:17:29.671Z,3205
2017-05-29T11:18:41.956Z,3205
2017-05-29T11:19:54.529Z,3195
2017-05-29T11:21:06.201Z,3060
2017-05-29T11:22:18.160Z,2960
2017-05-29T11:23:30.139Z,2835
2017-05-29T11:24:42.700Z,2700
2017-05-29T11:25:55.273Z,2490
2017-05-29T11:27:07.835Z,2625
2017-05-29T11:28:20.083Z,2635
2017-05-29T11:29:32.327Z,2485
2017-05-29T11:30:44.577Z,2435
2017-05-29T11:31:57.094Z,2135
2017-05-29T11:33:09.681Z,2265
2017-05-29T11:34:22.266Z,2375
2017-05-29T11:35:34.531Z,2335
2017-05-29T11:36:46.784Z,2135
2017-05-29T11:37:59.365Z,2055
2017-05-29T11:39:11.703Z,2015
2017-05-29T11:40:24.293Z,1870
2017-05-29T11:41:36.557Z,1930
2017-05-29T11:42:49.107Z,2000
2017-05-29T11:44:01.359Z,1885
2017-05-29T11:45:13.928Z,1905
2017-05-29T11:46:25.623Z,1765
2017-05-29T11:47:37.893Z,1885
2017-05-29T11:48:50.465Z,2060
2017-05-29T11:50:03.036Z,1820
2017-05-29T11:51:15.303Z,1925
2017-05-29T11:52:27.578Z,2225
2017-05-29T11:53:40.137Z,2295
2017-05-29T11:54:52.697Z,2440
2017-05-29T11:56:05.280Z,4035
2017-05-29T11:57:17.549Z,5940
2017-05-29T11:58:30.108Z,6500
2017-05-29T11:59:41.795Z,6335
2017-05-29T12:00:54.346Z,5410
2017-05-29T12:02:06.297Z,4940
2017-05-29T12:03:18.837Z,4330
2017-05-29T12:04:31.101Z,3955
2017-05-29T12:05:43.650Z,4275
2017-05-29T12:06:55.621Z,4185
2017-05-29T12:08:08.174Z,4430
2017-05-29T12:09:20.448Z,4660
2017-05-29T12:10:32.734Z,5155
2017-05-29T12:11:45.305Z,5405
2017-05-29T12:12:57.880Z,5255
2017-05-29T12:14:10.127Z,4470
2017-05-29T12:15:22.126Z,4295
2017-05-29T12:16:34.695Z,4225
2017-05-29T12:17:46.960Z,4310
2017-05-29T12:18:59.514Z,4305
2017-05-29T12:20:11.784Z,4350
2017-05-29T12:21:24.372Z,4170
2017-05-29T12:22:36.647Z,4195
2017-05-29T12:23:49.171Z,4460
2017-05-29T12:25:01.761Z,4245
2017-05-29T12:26:14.313Z,4340
2017-05-29T12:27:26.287Z,4460
2017-05-29T12:28:38.868Z,4350
2017-05-29T12:29:51.131Z,4610
2017-05-29T12:31:03.711Z,4605
2017-05-29T12:32:15.970Z,4075
2017-05-29T12:33:28.253Z,3995
2017-05-29T12:34:40.502Z,4290
2017-05-29T12:35:53.080Z,4700
2017-05-29T12:37:05.669Z,4890
2017-05-29T12:38:17.636Z,4860
2017-05-29T12:39:29.922Z,5215
2017-05-29T12:40:41.906Z,4770
2017-05-29T12:41:54.487Z,4910
2017-05-29T12:43:07.074Z,5140
2017-05-29T12:44:19.346Z,4850
2017-05-29T12:45:31.615Z,4655
2017-05-29T12:46:44.192Z,4650
2017-05-29T12:47:56.515Z,4795
2017-05-29T12:49:07.884Z,4900
2017-05-29T12:50:19.528Z,4305
2017-05-29T12:51:32.074Z,3675
2017-05-29T12:52:44.622Z,4020
2017-05-29T12:53:57.208Z,2555
2017-05-29T12:55:09.787Z,3255
2017-05-29T12:56:21.738Z,2230
2017-05-29T12:57:33.708Z,2885
2017-05-29T12:58:46.499Z,3685
2017-05-29T12:59:58.763Z,2820
2017-05-29T13:01:11.016Z,3575
2017-05-29T13:02:23.263Z,4690
2017-05-29T13:03:35.510Z,5430
2017-05-29T13:04:47.787Z,5645
2017-05-29T13:05:59.767Z,5880
2017-05-29T13:07:12.025Z,5910
2017-05-29T13:08:24.287Z,5750
2017-05-29T13:09:36.843Z,5890
2017-05-29T13:10:49.129Z,5970
2017-05-29T13:12:01.396Z,5740
2017-05-29T13:13:13.800Z,5525
2017-05-29T13:14:26.351Z,5610
2017-05-29T13:15:38.934Z,5795
2017-05-29T13:16:51.191Z,5680
2017-05-29T13:18:03.760Z,5495
2017-05-29T13:19:16.322Z,5595
2017-05-29T13:20:28.281Z,5690
2017-05-29T13:21:40.822Z,5685
2017-05-29T13:22:53.393Z,5795
2017-05-29T13:24:05.968Z,5395
2017-05-29T13:25:17.339Z,5090
2017-05-29T13:26:29.583Z,5310
2017-05-29T13:27:41.878Z,5535
2017-05-29T13:28:54.442Z,5285
2017-05-29T13:30:06.695Z,5150
2017-05-29T13:31:19.257Z,5000
2017-05-29T13:32:31.827Z,5275
2017-05-29T13:33:43.764Z,5070
2017-05-29T13:34:56.044Z,4910
2017-05-29T13:36:08.018Z,4885
2017-05-29T13:37:20.570Z,4855
2017-05-29T13:38:32.501Z,4800
2017-05-29T13:39:44.459Z,4505
2017-05-29T13:40:56.727Z,4480
2017-05-29T13:42:08.081Z,4250
2017-05-29T13:43:20.377Z,4475
2017-05-29T13:44:32.665Z,4605
2017-05-29T13:45:44.939Z,4385
2017-05-29T13:46:57.162Z,4360
2017-05-29T13:48:09.427Z,4450
2017-05-29T13:49:21.700Z,4505
2017-05-29T13:50:33.952Z,4655
2017-05-29T13:51:45.948Z,4605
2017-05-29T13:52:58.214Z,4555
2017-05-29T13:54:10.479Z,4490
2017-05-29T13:55:22.737Z,4545
2017-05-29T13:56:35.285Z,4705
2017-05-29T13:57:47.578Z,3980
2017-05-29T13:58:59.845Z,4130
2017-05-29T14:00:12.407Z,4270
2017-05-29T14:01:24.386Z,4295
2017-05-29T14:02:36.039Z,4280
2017-05-29T14:03:48.606Z,4280
2017-05-29T14:05:00.854Z,4390
2017-05-29T14:06:13.442Z,4295
2017-05-29T14:07:25.460Z,4245
2017-05-29T14:08:37.715Z,4185
2017-05-29T14:09:49.379Z,4090
2017-05-29T14:11:01.929Z,4050
2017-05-29T14:12:14.182Z,4085
2017-05-29T14:13:26.448Z,3615
2017-05-29T14:14:38.410Z,3965
2017-05-29T14:15:50.670Z,2715
2017-05-29T14:17:02.637Z,3075
2017-05-29T14:18:14.600Z,4030
2017-05-29T14:19:27.124Z,3520
2017-05-29T14:20:39.093Z,2480
2017-05-29T14:21:51.669Z,1980
2017-05-29T14:23:04.245Z,2020
2017-05-29T14:24:16.530Z,1300
2017-05-29T14:25:29.076Z,1640
2017-05-29T14:26:41.627Z,3245
2017-05-29T14:27:54.146Z,3260
2017-05-29T14:29:06.421Z,2550
2017-05-29T14:30:18.667Z,3305
2017-05-29T14:31:30.928Z,3845
2017-05-29T14:32:43.510Z,3965
2017-05-29T14:33:55.781Z,3705
2017-05-29T14:35:08.330Z,3285
2017-05-29T14:36:20.593Z,2820
2017-05-29T14:37:32.260Z,3430
2017-05-29T14:38:44.831Z,3445
2017-05-29T14:39:57.081Z,3350
2017-05-29T14:41:09.645Z,2685
2017-05-29T14:42:22.177Z,1980
2017-05-29T14:43:34.221Z,1060
2017-05-29T14:44:46.442Z,975
2017-05-29T14:45:58.690Z,875
2017-05-29T14:47:10.932Z,825
2017-05-29T14:48:23.474Z,850
2017-05-29T14:49:35.726Z,805
2017-05-29T14:50:48.273Z,790
2017-05-29T14:52:00.540Z,800
2017-05-29T14:53:13.113Z,770
2017-05-29T14:54:25.078Z,795
2017-05-29T14:55:37.648Z,785
2017-05-29T14:56:50.241Z,800
2017-05-29T14:58:02.797Z,795
2017-05-29T14:59:15.340Z,825
2017-05-29T15:00:26.992Z,820
2017-05-29T15:01:39.276Z,820
2017-05-29T15:02:51.545Z,800
2017-05-29T15:04:03.777Z,800
2017-05-29T15:05:16.039Z,795
2017-05-29T15:06:28.592Z,800
2017-05-29T15:07:40.842Z,815
2017-05-29T15:08:53.387Z,850
2017-05-29T15:10:05.029Z,840
2017-05-29T15:11:17.283Z,795
2017-05-29T15:12:29.838Z,770
2017-05-29T15:13:42.346Z,755
2017-05-29T15:14:54.642Z,765
2017-05-29T15:16:06.859Z,735
2017-05-29T15:17:18.805Z,710
2017-05-29T15:18:30.747Z,700
2017-05-29T15:19:43.570Z,695
2017-05-29T15:20:56.102Z,690
2017-05-29T15:22:08.699Z,695
2017-05-29T15:23:20.943Z,715
2017-05-29T15:24:33.210Z,735
2017-05-29T15:25:45.479Z,770
2017-05-29T15:26:58.043Z,770
2017-05-29T15:28:09.693Z,765
2017-05-29T15:29:22.242Z,790
2017-05-29T15:30:33.927Z,795
2017-05-29T15:31:45.606Z,775
2017-05-29T15:32:57.856Z,825
2017-05-29T15:34:10.414Z,880
2017-05-29T15:35:22.644Z,805
2017-05-29T15:36:35.184Z,835
2017-05-29T15:37:46.842Z,1355
2017-05-29T15:38:59.108Z,1400
2017-05-29T15:40:11.630Z,1005
2017-05-29T15:41:24.427Z,1190
2017-05-29T15:42:36.973Z,985
2017-05-29T15:43:48.916Z,940
2017-05-29T15:45:01.469Z,910
2017-05-29T15:46:14.027Z,755
2017-05-29T15:47:26.580Z,615
2017-05-29T15:48:38.823Z,590
2017-05-29T15:49:50.773Z,580
2017-05-29T15:51:03.019Z,550
2017-05-29T15:52:14.969Z,505
2017-05-29T15:53:27.553Z,475
2017-05-29T15:54:40.104Z,450
2017-05-29T15:55:52.680Z,440
2017-05-29T15:57:04.925Z,425
2017-05-29T15:58:17.168Z,425
2017-05-29T15:59:29.729Z,420
2017-05-29T16:00:42.303Z,415
2017-05-29T16:01:54.579Z,420
2017-05-29T16:03:07.127Z,415
2017-05-29T16:04:18.792Z,415
2017-05-29T16:05:31.341Z,410
2017-05-29T16:06:43.867Z,410
2017-05-29T16:07:56.404Z,405
2017-05-29T16:09:08.958Z,405
2017-05-29T16:10:21.517Z,400
2017-05-29T16:11:33.489Z,390
2017-05-29T16:12:46.045Z,370
2017-05-29T16:13:58.587Z,335
2017-05-29T16:15:10.834Z,315
2017-05-29T16:16:22.783Z,295
2017-05-29T16:17:34.770Z,275
2017-05-29T16:18:46.746Z,260
2017-05-29T16:19:59.285Z,255
2017-05-29T16:21:11.538Z,245
2017-05-29T16:22:23.781Z,235
2017-05-29T16:23:36.011Z,230
2017-05-29T16:24:48.579Z,225
2017-05-29T16:26:01.102Z,225
2017-05-29T16:27:13.360Z,220
2017-05-29T16:28:25.914Z,220
2017-05-29T16:29:38.166Z,215
2017-05-29T16:30:50.151Z,215
2017-05-29T16:32:02.705Z,210